Time;durP1;ratioP1;P1;durP2;ratioP2;P2;SDS_P1;SDS_P2;PMS_P1;PMS_P2;Temp;Humidity;BMP_temperature;BMP_pressure;BME280_temperature;BME280_humidity;BME280_pressure;Samples;Min_cycle;Max_cycle;Signal;HPM_P1;HPM_P2
2022/04/27 00:00:20;;;;;;;10.05;4.90;;;6.90;99.90;;;;;;5082642;28;20481;-65
2022/04/27 00:02:46;;;;;;;7.70;5.05;;;6.80;99.90;;;;;;5084970;28;20054;-66
2022/04/27 00:05:12;;;;;;;8.00;4.38;;;6.80;99.90;;;;;;5086967;28;20072;-65
2022/04/27 00:07:38;;;;;;;8.85;4.97;;;6.70;99.90;;;;;;5086835;28;20333;-66
2022/04/27 00:10:05;;;;;;;8.27;5.15;;;6.80;99.90;;;;;;5086721;28;20075;-67
2022/04/27 00:12:33;;;;;;;9.82;4.85;;;6.70;99.90;;;;;;5085479;28;20039;-66
2022/04/27 00:14:59;;;;;;;8.38;5.35;;;6.70;99.90;;;;;;5086165;28;20036;-66
2022/04/27 00:17:25;;;;;;;10.40;5.40;;;6.70;99.90;;;;;;5086230;28;20040;-66
2022/04/27 00:19:50;;;;;;;11.68;5.03;;;6.60;99.90;;;;;;5077976;28;20081;-66
2022/04/27 00:22:16;;;;;;;9.63;5.38;;;6.60;99.90;;;;;;5083939;28;20032;-65
2022/04/27 00:24:42;;;;;;;7.32;4.68;;;6.50;99.90;;;;;;5083804;28;20093;-66
2022/04/27 00:27:07;;;;;;;8.93;5.28;;;6.50;99.90;;;;;;5083909;28;20376;-65
2022/04/27 00:29:33;;;;;;;7.15;5.38;;;6.50;99.90;;;;;;5082817;28;20055;-66
2022/04/27 00:31:58;;;;;;;8.73;5.85;;;6.50;99.90;;;;;;5077742;28;20048;-66
2022/04/27 00:34:24;;;;;;;8.20;5.60;;;6.50;99.90;;;;;;5080244;28;20035;-66
2022/04/27 00:36:50;;;;;;;9.30;5.75;;;6.50;99.90;;;;;;5081096;28;20106;-67
2022/04/27 00:39:17;;;;;;;11.60;6.30;;;6.50;99.90;;;;;;5081956;28;20211;-65
2022/04/27 00:41:59;;;;;;;9.43;6.07;;;6.50;99.90;;;;;;5082753;28;20105;-66
2022/04/27 00:44:29;;;;;;;9.15;5.72;;;6.40;99.90;;;;;;5079208;28;20098;-65
2022/04/27 00:46:55;;;;;;;8.45;5.70;;;6.40;99.90;;;;;;5081340;28;20040;-65
2022/04/27 00:49:21;;;;;;;9.25;5.43;;;6.40;99.90;;;;;;5079361;28;20362;-65
2022/04/27 00:51:48;;;;;;;8.68;5.38;;;6.30;99.90;;;;;;5079500;28;20043;-66
2022/04/27 00:54:14;;;;;;;8.40;5.65;;;6.30;99.90;;;;;;5079169;28;20059;-66
2022/04/27 00:56:42;;;;;;;9.45;5.25;;;6.40;99.90;;;;;;5081651;28;20048;-65
2022/04/27 00:59:08;;;;;;;8.95;5.68;;;6.30;99.90;;;;;;5081119;28;20044;-66
2022/04/27 01:01:34;;;;;;;8.82;5.80;;;6.30;99.90;;;;;;5079539;28;20055;-66
2022/04/27 01:04:00;;;;;;;9.32;5.78;;;6.30;99.90;;;;;;5084190;28;20048;-65
2022/04/27 01:06:26;;;;;;;9.70;5.78;;;6.30;99.90;;;;;;5082856;28;20043;-66
2022/04/27 01:08:52;;;;;;;10.23;6.57;;;6.20;99.90;;;;;;5080540;28;20055;-65
2022/04/27 01:11:18;;;;;;;9.93;6.03;;;6.20;99.90;;;;;;5081727;28;20048;-66
2022/04/27 01:13:44;;;;;;;8.80;5.78;;;6.10;99.90;;;;;;5083083;28;20036;-67
2022/04/27 01:16:10;;;;;;;8.32;5.57;;;6.10;99.90;;;;;;5085653;28;20846;-66
2022/04/27 01:18:36;;;;;;;8.45;5.82;;;6.00;99.90;;;;;;5089244;28;20337;-66
2022/04/27 01:21:03;;;;;;;8.93;6.30;;;6.00;99.90;;;;;;5085603;28;20048;-67
2022/04/27 01:23:29;;;;;;;11.52;6.30;;;6.00;99.90;;;;;;5088444;28;20109;-66
2022/04/27 01:25:56;;;;;;;8.55;6.30;;;6.00;99.90;;;;;;5088492;28;20036;-66
2022/04/27 01:28:28;;;;;;;9.88;6.70;;;6.00;99.90;;;;;;5084710;28;20044;-66
2022/04/27 01:30:57;;;;;;;9.35;6.50;;;5.90;99.90;;;;;;5088422;28;20131;-65
2022/04/27 01:33:24;;;;;;;10.82;7.07;;;5.90;99.90;;;;;;5085101;28;20042;-66
2022/04/27 01:35:50;;;;;;;8.93;6.95;;;5.80;99.90;;;;;;5083141;28;20055;-65
2022/04/27 01:38:16;;;;;;;11.55;7.75;;;5.80;99.90;;;;;;5082755;28;20040;-66
2022/04/27 01:40:42;;;;;;;12.93;7.45;;;5.80;99.90;;;;;;5087106;28;20067;-66
2022/04/27 01:43:07;;;;;;;11.52;7.60;;;5.70;99.90;;;;;;5087451;28;20143;-65
2022/04/27 01:45:33;;;;;;;11.23;8.52;;;5.70;99.90;;;;;;5088689;28;20071;-65
2022/04/27 01:47:59;;;;;;;12.35;7.50;;;5.60;99.90;;;;;;5077792;28;20101;-66
2022/04/27 01:50:24;;;;;;;13.38;7.70;;;5.60;99.90;;;;;;5087048;28;20047;-65
2022/04/27 01:55:35;;;;;;;12.30;7.95;;;5.30;99.90;;;;;;5085852;28;20052;-66
2022/04/27 01:58:01;;;;;;;10.15;7.00;;;5.40;99.90;;;;;;5082240;28;20062;-65
2022/04/27 02:00:27;;;;;;;9.80;7.57;;;5.40;99.90;;;;;;5084292;28;20126;-65
2022/04/27 02:02:52;;;;;;;9.77;6.68;;;5.50;99.90;;;;;;5082856;28;20066;-65
2022/04/27 02:05:18;;;;;;;10.60;7.30;;;5.50;99.90;;;;;;5083703;28;20052;-67
2022/04/27 02:07:43;;;;;;;10.18;6.70;;;5.60;99.90;;;;;;5087172;28;20055;-65
2022/04/27 02:10:10;;;;;;;9.43;6.57;;;5.60;99.90;;;;;;5084887;28;20036;-66
2022/04/27 02:12:35;;;;;;;11.70;8.07;;;5.70;99.90;;;;;;5082603;28;20064;-65
2022/04/27 02:15:02;;;;;;;9.98;6.75;;;5.70;99.90;;;;;;5087299;28;20109;-67
2022/04/27 02:17:28;;;;;;;13.02;7.60;;;5.60;99.90;;;;;;5087330;28;20129;-65
2022/04/27 02:19:53;;;;;;;12.05;6.85;;;5.70;99.90;;;;;;5087875;28;20185;-65
2022/04/27 02:22:19;;;;;;;12.13;7.15;;;5.70;99.90;;;;;;5082522;28;20047;-66
2022/04/27 02:24:44;;;;;;;10.63;7.45;;;5.80;99.90;;;;;;5085389;28;20487;-65
2022/04/27 02:27:10;;;;;;;11.32;8.10;;;5.80;99.90;;;;;;5089227;28;20057;-66
2022/04/27 02:29:36;;;;;;;10.40;7.57;;;5.90;99.90;;;;;;5088556;28;20127;-66
2022/04/27 02:32:02;;;;;;;11.88;7.75;;;5.90;99.90;;;;;;5082396;28;20467;-67
2022/04/27 02:34:27;;;;;;;12.02;8.02;;;5.90;99.90;;;;;;5086550;28;20373;-66
2022/04/27 02:36:53;;;;;;;12.77;7.80;;;5.90;99.90;;;;;;5084412;28;20044;-66
2022/04/27 02:39:18;;;;;;;12.77;7.65;;;5.90;99.90;;;;;;5084181;28;20036;-66
2022/04/27 02:41:44;;;;;;;10.20;7.95;;;6.00;99.90;;;;;;5084694;28;20169;-66
2022/04/27 02:44:10;;;;;;;13.48;7.75;;;6.00;99.90;;;;;;5083426;28;20067;-65
2022/04/27 02:46:37;;;;;;;14.88;8.40;;;6.00;99.90;;;;;;5083611;28;20797;-67
2022/04/27 02:51:51;;;;;;;11.07;7.80;;;6.10;99.90;;;;;;5079223;28;20348;-65
2022/04/27 02:54:21;;;;;;;14.88;9.18;;;6.10;99.90;;;;;;5085600;28;20097;-66
2022/04/27 02:56:48;;;;;;;11.15;7.70;;;6.00;99.90;;;;;;5081706;28;20079;-65
2022/04/27 02:59:13;;;;;;;13.23;8.75;;;6.00;99.90;;;;;;5088005;28;20127;-66
2022/04/27 03:01:39;;;;;;;11.27;8.38;;;6.00;99.90;;;;;;5086975;28;20527;-66
2022/04/27 03:04:05;;;;;;;12.35;8.95;;;6.00;99.90;;;;;;5084624;28;20040;-65
2022/04/27 03:06:31;;;;;;;11.18;8.60;;;6.00;99.90;;;;;;5079805;28;20040;-66
2022/04/27 03:08:56;;;;;;;12.60;8.95;;;6.00;99.90;;;;;;5082320;28;20046;-65
2022/04/27 03:11:22;;;;;;;12.02;8.05;;;6.10;99.90;;;;;;5079882;28;20389;-65
2022/04/27 03:13:48;;;;;;;10.70;8.07;;;6.10;99.90;;;;;;5084958;28;20127;-66
2022/04/27 03:16:13;;;;;;;11.98;8.27;;;6.20;99.90;;;;;;5079431;28;20344;-65
2022/04/27 03:18:39;;;;;;;11.20;8.02;;;6.20;99.90;;;;;;5086975;28;20036;-64
2022/04/27 03:21:04;;;;;;;13.68;8.60;;;6.20;99.90;;;;;;5084078;28;20043;-65
2022/04/27 03:23:30;;;;;;;14.10;8.50;;;6.30;99.90;;;;;;5087116;28;20073;-64
2022/04/27 03:25:55;;;;;;;13.45;8.43;;;6.30;99.90;;;;;;5082532;28;20130;-66
2022/04/27 03:28:21;;;;;;;12.10;8.25;;;6.30;99.90;;;;;;5083772;28;20189;-65
2022/04/27 03:30:49;;;;;;;14.18;8.45;;;6.30;99.90;;;;;;5083942;28;20127;-64
2022/04/27 03:33:15;;;;;;;13.32;8.38;;;6.40;99.90;;;;;;5085326;28;20044;-64
2022/04/27 03:35:41;;;;;;;10.15;7.65;;;6.50;99.90;;;;;;5081198;28;20082;-65
2022/04/27 03:38:08;;;;;;;12.27;8.20;;;6.50;99.90;;;;;;5082722;28;20055;-65
2022/04/27 03:40:34;;;;;;;11.73;8.00;;;6.50;99.90;;;;;;5085050;28;20040;-63
2022/04/27 03:42:59;;;;;;;12.15;8.40;;;6.50;99.90;;;;;;5086363;28;20095;-65
2022/04/27 03:45:25;;;;;;;13.18;8.93;;;6.60;99.90;;;;;;5084340;28;20052;-64
2022/04/27 03:47:51;;;;;;;10.23;7.88;;;6.50;99.90;;;;;;5082705;28;20059;-65
2022/04/27 03:50:16;;;;;;;12.73;8.80;;;6.50;99.90;;;;;;5083535;28;20379;-65
2022/04/27 03:52:42;;;;;;;13.63;8.40;;;6.50;99.90;;;;;;5085012;28;20070;-64
2022/04/27 03:55:09;;;;;;;11.02;8.35;;;6.50;99.90;;;;;;5086049;28;20457;-65
2022/04/27 03:57:34;;;;;;;12.95;8.77;;;6.60;99.90;;;;;;5086336;28;20436;-67
2022/04/27 04:00:00;;;;;;;11.13;8.32;;;6.60;99.90;;;;;;5078667;28;20093;-65
2022/04/27 04:02:25;;;;;;;12.02;8.25;;;6.60;99.90;;;;;;5076281;28;20044;-64
2022/04/27 04:04:51;;;;;;;17.77;8.98;;;6.60;99.90;;;;;;5083365;28;20087;-65
2022/04/27 04:07:17;;;;;;;11.10;8.85;;;6.60;99.90;;;;;;5086563;28;20109;-64
2022/04/27 04:09:42;;;;;;;15.02;8.65;;;6.60;99.90;;;;;;5085771;28;20047;-64
2022/04/27 04:12:08;;;;;;;13.70;8.90;;;6.60;99.90;;;;;;5083167;28;20035;-65
2022/04/27 04:14:34;;;;;;;10.88;8.35;;;6.70;99.90;;;;;;5076754;28;20054;-65
2022/04/27 04:17:00;;;;;;;13.32;8.43;;;6.70;99.90;;;;;;5075474;28;20151;-64
2022/04/27 04:19:25;;;;;;;12.75;8.80;;;6.70;99.90;;;;;;5081964;28;20076;-65
2022/04/27 04:21:51;;;;;;;14.57;8.57;;;6.70;99.90;;;;;;5077619;28;20040;-64
2022/04/27 04:24:17;;;;;;;13.57;9.88;;;6.70;99.90;;;;;;5082753;28;20121;-64
2022/04/27 04:29:27;;;;;;;11.52;8.60;;;6.70;99.90;;;;;;5081156;28;20055;-65
2022/04/27 04:31:52;;;;;;;12.88;8.43;;;6.70;99.90;;;;;;5080051;28;20373;-64
2022/04/27 04:34:18;;;;;;;13.93;8.85;;;6.70;99.90;;;;;;5083046;28;20067;-65
2022/04/27 04:36:44;;;;;;;14.52;9.00;;;6.70;99.90;;;;;;5081025;28;20050;-64
2022/04/27 04:39:09;;;;;;;15.82;9.55;;;6.70;99.90;;;;;;5081551;28;20040;-64
2022/04/27 04:41:35;;;;;;;12.57;8.70;;;6.80;99.90;;;;;;5085183;28;20386;-64
2022/04/27 04:44:01;;;;;;;12.57;8.82;;;6.80;99.90;;;;;;5083577;28;20036;-64
2022/04/27 04:46:26;;;;;;;11.85;8.65;;;6.80;99.90;;;;;;5083473;28;20119;-64
2022/04/27 04:48:52;;;;;;;12.40;9.25;;;6.90;99.90;;;;;;5079901;28;20063;-64
2022/04/27 04:51:17;;;;;;;13.02;8.80;;;6.90;99.90;;;;;;5074135;28;20121;-64
2022/04/27 04:53:43;;;;;;;11.68;8.98;;;6.90;99.90;;;;;;5082227;28;20087;-63
2022/04/27 04:56:08;;;;;;;12.48;9.35;;;6.90;99.90;;;;;;5083228;28;20492;-64
2022/04/27 04:58:34;;;;;;;14.27;9.43;;;6.90;99.90;;;;;;5085800;28;20498;-66
2022/04/27 05:01:01;;;;;;;12.85;8.93;;;7.00;99.90;;;;;;5084325;28;20083;-64
2022/04/27 05:03:27;;;;;;;14.13;9.20;;;7.00;99.90;;;;;;5080904;28;21849;-64
2022/04/27 05:05:52;;;;;;;15.38;8.82;;;7.00;99.90;;;;;;5077285;28;20072;-64
2022/04/27 05:08:18;;;;;;;13.75;9.10;;;7.10;99.90;;;;;;5072592;28;20370;-64
2022/04/27 05:10:44;;;;;;;14.45;9.57;;;7.10;99.90;;;;;;5075660;28;20503;-64
2022/04/27 05:13:09;;;;;;;13.15;9.23;;;7.20;99.90;;;;;;5082528;28;20040;-64
2022/04/27 05:15:35;;;;;;;14.95;10.23;;;7.20;99.90;;;;;;5083389;28;20040;-65
2022/04/27 05:18:01;;;;;;;12.18;8.50;;;7.20;99.90;;;;;;5079180;28;20372;-64
2022/04/27 05:20:26;;;;;;;12.80;8.38;;;7.30;99.90;;;;;;5080345;28;20170;-64
2022/04/27 05:22:52;;;;;;;14.63;9.63;;;7.30;99.90;;;;;;5079255;28;20496;-65
2022/04/27 05:25:18;;;;;;;15.63;9.52;;;7.40;99.90;;;;;;5079798;28;20036;-64
2022/04/27 05:27:44;;;;;;;16.20;9.43;;;7.30;99.90;;;;;;5078042;28;20039;-64
2022/04/27 05:32:55;;;;;;;13.00;8.93;;;7.40;99.90;;;;;;5080458;28;20082;-64
2022/04/27 05:35:20;;;;;;;16.40;9.73;;;7.50;99.90;;;;;;5076278;28;20044;-64
2022/04/27 05:37:46;;;;;;;12.27;8.48;;;7.50;99.90;;;;;;5076984;28;20043;-65
2022/04/27 05:40:12;;;;;;;14.40;9.73;;;7.60;99.90;;;;;;5075562;28;20140;-65
2022/04/27 05:42:39;;;;;;;12.80;8.70;;;7.60;99.90;;;;;;5075466;28;20481;-65
2022/04/27 05:45:06;;;;;;;10.35;8.15;;;7.70;99.90;;;;;;5075885;28;20067;-65
2022/04/27 05:47:32;;;;;;;11.57;8.85;;;7.80;99.90;;;;;;5080040;28;20126;-65
2022/04/27 05:49:57;;;;;;;11.77;8.80;;;7.80;99.90;;;;;;5071672;28;20125;-65
2022/04/27 05:52:23;;;;;;;13.25;8.80;;;7.90;99.90;;;;;;5079624;28;20464;-65
2022/04/27 05:54:49;;;;;;;11.98;8.32;;;7.90;99.90;;;;;;5075528;28;20043;-65
2022/04/27 05:57:14;;;;;;;12.43;9.10;;;8.00;99.90;;;;;;5084929;28;20105;-65
2022/04/27 05:59:40;;;;;;;13.30;8.65;;;8.00;99.90;;;;;;5066196;28;20151;-65
2022/04/27 06:02:06;;;;;;;12.25;7.65;;;8.10;99.90;;;;;;5080877;28;20159;-67
2022/04/27 06:04:32;;;;;;;12.15;8.35;;;8.10;99.90;;;;;;5081824;28;20040;-66
2022/04/27 06:06:58;;;;;;;15.20;9.10;;;8.10;99.90;;;;;;5081000;28;20047;-66
2022/04/27 06:09:23;;;;;;;14.27;8.63;;;8.10;99.90;;;;;;5080613;28;20043;-65
2022/04/27 06:11:49;;;;;;;16.08;9.00;;;8.20;99.90;;;;;;5081589;28;20042;-65
2022/04/27 06:14:14;;;;;;;11.63;8.27;;;8.20;99.90;;;;;;5081347;28;20154;-65
2022/04/27 06:16:40;;;;;;;12.82;8.68;;;8.30;99.90;;;;;;5082867;28;20140;-65
2022/04/27 06:19:05;;;;;;;10.80;7.28;;;8.30;99.90;;;;;;5082553;28;20551;-65
2022/04/27 06:21:32;;;;;;;15.10;7.60;;;8.40;99.90;;;;;;5083418;28;21605;-64
2022/04/27 06:23:59;;;;;;;11.55;7.75;;;8.50;99.90;;;;;;5084085;28;20528;-64
2022/04/27 06:26:25;;;;;;;11.45;7.95;;;8.50;99.90;;;;;;5083519;28;20177;-64
2022/04/27 06:28:52;;;;;;;16.67;8.20;;;8.60;99.90;;;;;;5082546;28;20040;-64
2022/04/27 06:31:18;;;;;;;12.43;8.40;;;8.70;99.90;;;;;;5081525;28;20055;-64
2022/04/27 06:33:43;;;;;;;11.25;7.15;;;8.80;99.90;;;;;;5080165;28;20131;-65
2022/04/27 06:36:09;;;;;;;15.43;8.40;;;8.80;99.90;;;;;;5078614;28;20181;-65
2022/04/27 06:38:34;;;;;;;13.10;8.07;;;8.80;99.90;;;;;;5087826;28;20048;-64
2022/04/27 06:41:01;;;;;;;12.10;7.82;;;8.80;99.90;;;;;;5087747;28;20067;-64
2022/04/27 06:43:27;;;;;;;11.63;7.78;;;8.90;99.90;;;;;;5085040;28;20063;-64
2022/04/27 06:45:52;;;;;;;10.75;7.40;;;9.00;99.90;;;;;;5085802;28;20031;-65
2022/04/27 06:48:18;;;;;;;13.52;7.88;;;9.10;99.90;;;;;;5088365;28;20036;-64
2022/04/27 06:50:43;;;;;;;12.95;6.72;;;9.20;99.90;;;;;;5085253;28;20176;-64
2022/04/27 06:53:09;;;;;;;9.40;7.05;;;9.20;99.90;;;;;;5082635;28;20168;-65
2022/04/27 06:55:35;;;;;;;11.52;7.20;;;9.40;99.90;;;;;;5086667;28;20132;-66
2022/04/27 06:58:00;;;;;;;12.68;7.60;;;9.50;99.90;;;;;;5089522;28;20075;-66
2022/04/27 07:00:26;;;;;;;10.93;6.75;;;9.60;99.90;;;;;;5087510;28;20479;-65
2022/04/27 07:02:53;;;;;;;12.40;6.60;;;9.80;99.90;;;;;;5089065;28;20032;-66
2022/04/27 07:05:20;;;;;;;13.15;6.65;;;9.80;99.90;;;;;;5085038;28;20048;-65
2022/04/27 07:07:46;;;;;;;9.18;6.05;;;10.00;99.90;;;;;;5087285;28;20464;-66
2022/04/27 07:10:13;;;;;;;10.30;5.68;;;10.00;99.90;;;;;;5083821;28;20495;-65
2022/04/27 07:12:39;;;;;;;10.07;5.28;;;10.20;99.90;;;;;;5089355;28;20115;-66
2022/04/27 07:15:05;;;;;;;9.05;5.38;;;10.20;99.90;;;;;;5088162;28;20074;-66
2022/04/27 07:17:31;;;;;;;6.88;4.30;;;10.30;99.90;;;;;;5086836;28;20051;-65
2022/04/27 07:19:57;;;;;;;9.85;4.72;;;10.40;99.90;;;;;;5081203;28;20044;-65
2022/04/27 07:22:23;;;;;;;8.98;4.82;;;10.50;99.90;;;;;;5085999;28;20079;-64
2022/04/27 07:24:51;;;;;;;7.78;4.32;;;10.50;99.90;;;;;;5087493;28;20119;-66
2022/04/27 07:27:17;;;;;;;8.38;4.65;;;10.60;99.90;;;;;;5085772;28;20068;-65
2022/04/27 07:29:43;;;;;;;10.30;5.07;;;10.70;99.90;;;;;;5085888;28;20091;-66
2022/04/27 07:32:09;;;;;;;13.40;4.85;;;10.70;99.90;;;;;;5087313;28;20104;-65
2022/04/27 07:34:34;;;;;;;7.72;3.90;;;10.70;99.90;;;;;;5085089;28;20093;-65
2022/04/27 07:37:02;;;;;;;6.22;3.53;;;10.80;99.90;;;;;;5084037;28;20588;-66
2022/04/27 07:39:28;;;;;;;6.10;3.60;;;10.80;99.90;;;;;;5088142;28;20119;-66
2022/04/27 07:41:54;;;;;;;5.05;3.15;;;10.90;99.90;;;;;;5082627;28;20044;-65
2022/04/27 07:44:20;;;;;;;5.38;3.10;;;11.00;99.90;;;;;;5086080;28;20040;-64
2022/04/27 07:46:48;;;;;;;6.57;2.92;;;11.10;99.90;;;;;;5085171;28;20040;-65
2022/04/27 07:49:19;;;;;;;12.57;3.92;;;11.30;99.90;;;;;;5084634;28;20118;-65
2022/04/27 07:51:46;;;;;;;6.28;3.75;;;11.40;98.90;;;;;;5081431;28;20044;-65
2022/04/27 07:54:12;;;;;;;7.03;3.60;;;11.40;98.90;;;;;;5084183;28;20757;-66
2022/04/27 07:56:38;;;;;;;7.18;3.65;;;11.40;99.00;;;;;;5084964;28;20048;-65
2022/04/27 07:59:03;;;;;;;6.22;3.13;;;11.60;99.30;;;;;;5085245;28;20044;-65
2022/04/27 08:01:30;;;;;;;6.78;3.80;;;11.70;98.70;;;;;;5083767;28;20187;-65
2022/04/27 08:03:55;;;;;;;7.07;3.22;;;11.90;98.20;;;;;;5078982;28;20522;-65
2022/04/27 08:06:21;;;;;;;8.07;3.70;;;11.90;96.70;;;;;;5082725;28;20056;-65
2022/04/27 08:08:46;;;;;;;7.18;3.85;;;12.10;97.30;;;;;;5084580;28;20364;-65
2022/04/27 08:11:13;;;;;;;5.40;2.90;;;12.20;97.30;;;;;;5082751;28;20055;-64
2022/04/27 08:13:39;;;;;;;7.20;3.42;;;12.40;96.80;;;;;;5085142;28;20465;-66
2022/04/27 08:16:07;;;;;;;6.35;3.42;;;12.50;95.80;;;;;;5085440;28;20048;-64
2022/04/27 08:18:34;;;;;;;6.25;3.17;;;12.60;95.30;;;;;;5086576;28;20114;-64
2022/04/27 08:21:15;;;;;;;6.18;3.38;;;12.80;94.90;;;;;;5085556;28;20105;-66
2022/04/27 08:23:45;;;;;;;5.65;3.03;;;12.90;94.30;;;;;;5080412;28;20043;-64
2022/04/27 08:26:12;;;;;;;5.57;2.70;;;12.80;91.40;;;;;;5083901;28;20097;-64
2022/04/27 08:28:38;;;;;;;5.53;2.72;;;12.90;92.00;;;;;;5084658;28;20040;-64
2022/04/27 08:31:05;;;;;;;5.00;2.60;;;13.00;90.70;;;;;;5083191;28;20055;-65
2022/04/27 08:33:31;;;;;;;6.00;3.30;;;13.10;90.40;;;;;;5082717;28;20066;-65
2022/04/27 08:36:00;;;;;;;5.93;2.75;;;13.20;90.50;;;;;;5080210;28;20117;-64
2022/04/27 08:38:27;;;;;;;5.45;3.28;;;13.20;89.70;;;;;;5084083;28;20135;-65
2022/04/27 08:40:53;;;;;;;6.60;2.80;;;13.30;87.50;;;;;;5083172;28;20556;-66
2022/04/27 08:43:20;;;;;;;5.95;2.40;;;13.20;84.70;;;;;;5084293;28;20105;-65
2022/04/27 08:45:46;;;;;;;5.75;2.90;;;13.30;85.40;;;;;;5085238;28;20059;-65
2022/04/27 08:48:14;;;;;;;5.15;2.80;;;13.20;84.30;;;;;;5087382;28;20040;-65
2022/04/27 08:50:40;;;;;;;5.45;2.72;;;13.10;83.60;;;;;;5085123;28;20158;-65
2022/04/27 08:53:07;;;;;;;7.00;2.92;;;13.00;84.20;;;;;;5087172;28;20142;-65
2022/04/27 08:55:34;;;;;;;6.30;3.00;;;13.00;83.60;;;;;;5082410;28;20055;-65
2022/04/27 08:58:13;;;;;;;5.53;2.80;;;13.10;83.60;;;;;;5067750;28;20044;-64
2022/04/27 09:00:39;;;;;;;6.55;3.00;;;13.10;82.10;;;;;;5087039;28;20059;-65
2022/04/27 09:03:33;;;;;;;8.57;2.80;;;12.90;79.70;;;;;;5086195;28;20040;-64
2022/04/27 09:06:12;;;;;;;6.32;2.67;;;12.90;76.90;;;;;;5082449;28;20051;-64
2022/04/27 09:08:44;;;;;;;5.97;2.55;;;13.10;81.00;;;;;;5087068;28;20499;-65
2022/04/27 09:11:26;;;;;;;6.32;2.70;;;13.30;81.80;;;;;;5086703;28;20108;-67
2022/04/27 09:13:56;;;;;;;6.53;2.80;;;13.40;81.20;;;;;;5073880;28;20044;-65
2022/04/27 09:16:25;;;;;;;5.05;2.47;;;13.50;81.60;;;;;;5083854;28;20052;-67
2022/04/27 09:21:59;;;;;;;5.38;2.83;;;13.60;72.40;;;;;;5083728;28;21908;-67
2022/04/27 09:24:45;;;;;;;6.38;3.00;;;13.50;72.80;;;;;;5084536;28;20071;-65
2022/04/27 09:27:11;;;;;;;7.00;3.13;;;13.70;76.90;;;;;;5085852;28;20072;-68
2022/04/27 09:29:36;;;;;;;8.65;2.92;;;13.80;75.80;;;;;;5085409;28;20079;-66
2022/04/27 09:32:04;;;;;;;7.32;3.08;;;13.80;75.40;;;;;;5079667;28;20853;-66
2022/04/27 09:34:42;;;;;;;6.15;3.03;;;13.80;75.00;;;;;;5085158;28;20040;-66
2022/04/27 09:37:24;;;;;;;6.55;3.63;;;13.80;74.20;;;;;;5082028;28;20048;-65
2022/04/27 09:40:22;;;;;;;5.88;2.72;;;13.60;71.90;;;;;;5085991;28;20487;-66
2022/04/27 09:42:48;;;;;;;5.60;2.88;;;13.40;70.40;;;;;;5033342;28;20048;-65
2022/04/27 09:45:22;;;;;;;5.25;2.70;;;13.30;73.50;;;;;;5085065;28;20047;-67
2022/04/27 09:47:50;;;;;;;5.10;2.70;;;13.20;70.90;;;;;;5082829;28;20525;-65
2022/04/27 09:50:17;;;;;;;6.13;2.45;;;13.40;75.10;;;;;;5081168;28;20040;-66
2022/04/27 09:52:44;;;;;;;6.85;2.78;;;13.50;75.40;;;;;;5083537;28;20085;-65
2022/04/27 09:55:11;;;;;;;5.15;2.53;;;13.50;75.50;;;;;;5083088;28;20127;-64
2022/04/27 09:57:41;;;;;;;6.63;2.90;;;13.60;76.00;;;;;;5087185;28;20072;-64
2022/04/27 10:00:08;;;;;;;5.25;2.70;;;13.70;76.30;;;;;;5080854;28;20051;-64
2022/04/27 10:02:37;;;;;;;6.95;2.67;;;13.70;75.90;;;;;;5088357;28;20044;-65
2022/04/27 10:05:03;;;;;;;5.35;2.25;;;13.80;74.90;;;;;;5086405;28;20770;-64
2022/04/27 10:07:32;;;;;;;6.68;2.28;;;13.90;75.30;;;;;;5087460;28;20043;-65
2022/04/27 10:10:04;;;;;;;6.30;2.22;;;14.10;73.80;;;;;;5088662;28;20043;-64
2022/04/27 10:12:35;;;;;;;7.25;2.17;;;14.00;70.00;;;;;;5091712;28;20055;-63
2022/04/27 10:15:01;;;;;;;4.07;2.03;;;14.00;66.70;;;;;;5086074;28;20044;-65
2022/04/27 10:17:28;;;;;;;4.95;2.30;;;13.90;68.50;;;;;;5082530;28;20054;-64
2022/04/27 10:19:54;;;;;;;7.43;2.30;;;14.10;68.40;;;;;;5084548;28;20044;-65
2022/04/27 10:22:31;;;;;;;5.68;2.70;;;14.20;68.00;;;;;;5087719;28;20044;-65
2022/04/27 10:24:58;;;;;;;6.30;2.40;;;14.20;64.10;;;;;;5088079;28;20082;-64
2022/04/27 10:27:33;;;;;;;5.45;2.50;;;14.10;66.60;;;;;;5085947;28;20051;-64
2022/04/27 10:30:08;;;;;;;;;;;14.20;66.70;;;;;;5091331;28;20040;-64
2022/04/27 10:32:48;;;;;;;5.57;2.70;;;14.10;65.30;;;;;;5088353;28;19924;-65
2022/04/27 10:35:30;;;;;;;7.07;2.80;;;14.10;67.50;;;;;;5089051;28;20062;-64
2022/04/27 10:37:59;;;;;;;5.70;3.00;;;14.00;67.60;;;;;;5088859;28;20149;-66
2022/04/27 10:40:25;;;;;;;6.75;3.35;;;14.00;68.30;;;;;;5088351;28;20047;-66
2022/04/27 10:42:51;;;;;;;7.57;2.95;;;14.00;69.40;;;;;;5068859;28;20388;-64
2022/04/27 10:45:22;;;;;;;6.65;2.83;;;13.90;69.80;;;;;;5089678;28;20384;-66
2022/04/27 10:47:48;;;;;;;6.43;3.08;;;13.90;70.20;;;;;;5085138;28;20043;-65
2022/04/27 10:50:14;;;;;;;6.38;2.90;;;13.80;71.20;;;;;;5087786;28;20056;-66
2022/04/27 10:52:43;;;;;;;7.10;3.22;;;13.90;71.10;;;;;;5083315;28;20158;-66
2022/04/27 10:55:34;;;;;;;7.50;3.22;;;14.00;70.70;;;;;;5084303;28;20044;-67
2022/04/27 10:58:13;;;;;;;7.40;3.22;;;14.10;69.50;;;;;;5083950;28;20052;-65
2022/04/27 11:00:57;;;;;;;6.68;3.72;;;14.20;69.50;;;;;;5088822;28;20086;-66
2022/04/27 11:03:25;;;;;;;7.68;3.50;;;14.40;69.20;;;;;;5088383;28;20047;-64
2022/04/27 11:05:52;;;;;;;6.47;3.47;;;14.60;68.70;;;;;;5089169;28;20036;-65
2022/04/27 11:08:35;;;;;;;5.57;3.15;;;14.70;67.70;;;;;;5085206;28;20028;-64
2022/04/27 11:11:06;;;;;;;8.68;3.58;;;14.80;67.80;;;;;;5081248;28;20168;-65
2022/04/27 11:13:32;;;;;;;6.20;3.40;;;14.50;66.20;;;;;;5083915;28;20044;-65
2022/04/27 11:16:11;;;;;;;6.93;3.00;;;14.60;67.10;;;;;;5084275;28;20064;-65
2022/04/27 11:18:57;;;;;;;6.20;3.00;;;14.80;67.30;;;;;;5086885;28;20043;-64
2022/04/27 11:21:29;;;;;;;5.63;2.95;;;14.80;66.50;;;;;;5081422;28;20639;-64
2022/04/27 11:23:55;;;;;;;7.05;3.53;;;14.90;66.30;;;;;;5078827;28;20044;-65
2022/04/27 11:26:22;;;;;;;7.22;3.00;;;14.80;66.70;;;;;;5081209;28;20036;-65
2022/04/27 11:28:49;;;;;;;8.75;3.13;;;14.60;66.40;;;;;;5080005;28;20039;-65
2022/04/27 11:31:16;;;;;;;6.00;3.35;;;14.50;66.10;;;;;;5084399;28;21356;-64
2022/04/27 11:33:42;;;;;;;8.52;3.28;;;14.30;66.60;;;;;;5087753;28;20472;-66
2022/04/27 11:36:24;;;;;;;7.78;3.38;;;14.20;67.40;;;;;;5081874;28;20279;-64
2022/04/27 11:38:50;;;;;;;8.82;3.92;;;14.40;68.00;;;;;;5086358;28;20052;-65
2022/04/27 11:41:21;;;;;;;6.05;3.53;;;14.40;68.60;;;;;;5086963;28;20163;-65
2022/04/27 11:43:48;;;;;;;8.80;3.65;;;14.40;68.50;;;;;;5085851;28;20074;-65
2022/04/27 11:46:14;;;;;;;6.40;3.58;;;14.40;69.10;;;;;;5079983;28;20051;-66
2022/04/27 11:48:39;;;;;;;7.57;3.45;;;14.40;70.40;;;;;;5085320;28;20438;-66
2022/04/27 11:51:08;;;;;;;8.38;3.20;;;14.40;70.00;;;;;;5081651;28;20098;-66
2022/04/27 11:53:54;;;;;;;7.43;3.70;;;14.20;69.90;;;;;;5088896;28;20070;-65
2022/04/27 11:56:19;;;;;;;7.30;3.95;;;14.20;71.30;;;;;;5087568;28;20647;-65
2022/04/27 11:58:45;;;;;;;8.07;4.00;;;14.00;72.90;;;;;;5088682;28;20118;-65
2022/04/27 12:01:22;;;;;;;8.82;3.63;;;14.00;72.80;;;;;;5088443;28;20407;-64
2022/04/27 12:03:49;;;;;;;6.95;4.20;;;14.00;74.30;;;;;;5088594;28;20040;-65
2022/04/27 12:06:22;;;;;;;7.10;4.10;;;14.00;75.00;;;;;;5085058;28;20047;-65
2022/04/27 12:08:48;;;;;;;7.30;4.35;;;14.00;76.40;;;;;;5088696;28;20070;-64
2022/04/27 12:11:23;;;;;;;7.70;3.95;;;14.10;76.30;;;;;;5086798;28;20349;-64
2022/04/27 12:13:51;;;;;;;8.80;4.15;;;14.10;74.80;;;;;;5087897;28;20082;-66
2022/04/27 12:16:17;;;;;;;8.35;4.15;;;14.10;75.50;;;;;;5084402;28;20106;-66
2022/04/27 12:18:54;;;;;;;6.10;3.42;;;14.30;74.90;;;;;;5087641;28;20455;-65
2022/04/27 12:21:24;;;;;;;7.55;3.80;;;14.20;74.30;;;;;;5073866;28;20389;-64
2022/04/27 12:23:51;;;;;;;8.20;3.65;;;14.30;75.50;;;;;;5088948;28;20130;-64
2022/04/27 12:26:17;;;;;;;8.82;3.70;;;14.40;73.90;;;;;;5087223;28;20062;-64
2022/04/27 12:28:46;;;;;;;11.65;4.03;;;14.60;74.30;;;;;;5086801;28;20510;-65
2022/04/27 12:31:11;;;;;;;7.78;3.72;;;14.80;73.70;;;;;;5086859;28;20044;-64
2022/04/27 12:33:43;;;;;;;9.32;3.97;;;14.60;74.10;;;;;;5089826;28;20085;-64
2022/04/27 12:39:03;;;;;;;10.52;4.28;;;14.70;73.10;;;;;;5088100;28;20044;-64
2022/04/27 12:41:33;;;;;;;9.30;4.20;;;14.70;72.90;;;;;;5087988;28;20048;-64
2022/04/27 12:44:06;;;;;;;9.27;4.13;;;14.70;74.00;;;;;;5085888;28;20036;-64
2022/04/27 12:46:32;;;;;;;6.50;3.45;;;14.80;74.00;;;;;;5085141;28;20048;-65
2022/04/27 12:49:02;;;;;;;9.20;3.35;;;14.50;72.00;;;;;;5078396;28;20044;-64
2022/04/27 12:51:29;;;;;;;6.80;3.20;;;14.50;72.70;;;;;;5075438;28;20200;-64
2022/04/27 12:53:55;;;;;;;7.57;3.38;;;14.40;72.70;;;;;;5087457;28;20564;-65
2022/04/27 12:56:22;;;;;;;9.20;3.40;;;14.30;73.30;;;;;;5083361;28;20064;-65
2022/04/27 12:59:12;;;;;;;7.38;3.30;;;14.30;74.70;;;;;;5087594;28;20317;-64
2022/04/27 13:01:38;;;;;;;9.38;3.20;;;14.20;76.30;;;;;;5088082;28;20078;-64
2022/04/27 13:04:04;;;;;;;11.80;3.95;;;14.20;76.20;;;;;;5085624;28;20040;-64
2022/04/27 13:06:30;;;;;;;9.50;3.25;;;14.10;76.60;;;;;;5086700;28;20544;-64